Cartago, California
Current Conditions -  °F | °C
As of 10:56 AM on Thursday 30 Oct 2014 (Local Time) from KNID Reporting Station
Broken Clouds Broken Clouds  
Wind Chill: 70°   Ceiling: 30000
Heat Index: 70°   Visibility: 10mi
Dew Point: 18°   Wind: 0mph
Humidity: 14%   Direction: NA
Pressure: 30.08"   Gusts: NA
Location:  36.217°N, 117.947°W
Report Text: KNID 301756Z 00000KT 10SM FEW250 BKN300 21/M08 A3008 RMK AO2 SLP178 T02111078 10211 20067 50001 $
Loading
Personal Weather Stations






























Interactive Weather Map
Tropical Storm Tracking
New forecast layout! Learn more

10-Day Weather Forecast

Advertisements
Track Severe Weather on mobile